»·PEaware :: N2067Q KDVO-KMHR

N2067Q :: KDVO-KMHR

FLIGHT INFORMATION

Flight Status: Arrived
Operator: Privately registered:
United States
More flights under this callsign
Pilot: Andrzej B. (30)
Aircraft: BEECH AIRCRAFT DEBONAIR BONANZA
(BE33)
More flights by this aircraft type
Origin: KDVO Gnoss
United States
Destination: KMHR Mather
United States
More flights between these airports :: More routes between these airports
Route: SGD V108 CROIT V150 SAC
File this flight plan on PilotEdge
Remarks: Student Pilot Practice
Altitude:
(Current/Filed)
5,000ft
Speed:
(Current/Filed)
160kts
Departed: 23-Apr-12 05:51 PM
Arrived: 23-Apr-12 06:34 PM
Distance/Time
Traveled:
64nm/0:42
Distance/Time
To Go:
Arrived

Flight Plot

Page will automatically refresh every two minutes.


Map Options




Map Legend


Flown Route
Filed Route
Departure Airport
Arrival Airport
Navaid (VOR, NDB)
Fix

Horizontal Profiles

Position Reports

Time Latitude Longitude Heading Altitude Ground
Speed
23-Apr-12 17:38 38.146917 -122.559335 152 6ft 0kts
23-Apr-12 17:39 38.146917 -122.559335 152 6ft 0kts
23-Apr-12 17:40 38.146917 -122.559335 152 6ft 0kts
23-Apr-12 17:41 38.146917 -122.559335 152 5ft 0kts
23-Apr-12 17:42 38.146917 -122.559335 152 5ft 0kts
23-Apr-12 17:43 38.146917 -122.559335 152 5ft 0kts
23-Apr-12 17:44 38.146917 -122.559335 152 5ft 0kts
23-Apr-12 17:45 38.146917 -122.559335 152 5ft 0kts
23-Apr-12 17:46 38.146917 -122.559335 152 5ft 0kts
23-Apr-12 17:47 38.146917 -122.559335 152 5ft 0kts
23-Apr-12 17:48 38.146811 -122.559253 146 5ft 3kts
23-Apr-12 17:49 38.146926 -122.559330 318 5ft 2kts
23-Apr-12 17:50 38.145897 -122.557875 151 6ft 51kts
23-Apr-12 17:51 38.130149 -122.541541 107 901ft 78kts
23-Apr-12 17:52 38.138196 -122.515350 64 1835ft 82kts
23-Apr-12 17:53 38.147278 -122.487788 69 2723ft 90kts
23-Apr-12 17:54 38.156716 -122.457223 69 3716ft 96kts
23-Apr-12 17:55 38.166728 -122.424871 69 4623ft 99kts
23-Apr-12 17:56 38.177749 -122.386345 87 4995ft 144kts
23-Apr-12 17:57 38.153559 -122.342544 130 4991ft 165kts
23-Apr-12 17:58 38.126368 -122.293347 128 4984ft 174kts
23-Apr-12 17:59 38.098511 -122.242469 132 4975ft 176kts
23-Apr-12 18:00 38.070970 -122.189729 92 4960ft 187kts
23-Apr-12 18:01 38.098861 -122.135367 47 4974ft 188kts
23-Apr-12 18:02 38.129782 -122.082718 47 4948ft 183kts
23-Apr-12 18:03 38.160797 -122.030554 47 4945ft 186kts
23-Apr-12 18:04 38.191615 -121.976987 49 4937ft 190kts
23-Apr-12 18:05 38.222814 -121.920983 50 4918ft 195kts
23-Apr-12 18:06 38.255018 -121.864566 50 4915ft 199kts
23-Apr-12 18:07 38.288479 -121.808705 50 4913ft 198kts
23-Apr-12 18:08 38.322631 -121.754428 50 4913ft 195kts
23-Apr-12 18:09 38.356426 -121.701256 52 4910ft 190kts
23-Apr-12 18:10 38.388860 -121.649248 53 4907ft 185kts
23-Apr-12 18:11 38.419916 -121.597846 53 4909ft 182kts
23-Apr-12 18:12 38.450833 -121.545882 56 4909ft 184kts
23-Apr-12 18:13 38.477277 -121.489060 70 4908ft 185kts
23-Apr-12 18:14 38.498886 -121.432159 58 4917ft 173kts
23-Apr-12 18:15 38.523874 -121.380720 61 4919ft 168kts
23-Apr-12 18:16 38.547348 -121.329404 61 4921ft 166kts
23-Apr-12 18:17 38.570793 -121.279644 62 4886ft 159kts
23-Apr-12 18:18 38.594063 -121.231658 61 4115ft 164kts
23-Apr-12 18:19 38.618462 -121.181618 61 3427ft 154kts
23-Apr-12 18:20 38.639486 -121.139810 61 3424ft 133kts
23-Apr-12 18:21 38.659666 -121.098089 61 3435ft 147kts
23-Apr-12 18:22 38.657230 -121.047750 104 3445ft 149kts
23-Apr-12 18:23 38.684421 -121.032509 292 3434ft 144kts
23-Apr-12 18:24 38.677633 -121.078509 233 2741ft 151kts
23-Apr-12 18:25 38.654624 -121.123219 235 1936ft 135kts
23-Apr-12 18:26 38.639785 -121.155107 234 1920ft 75kts
23-Apr-12 18:27 38.629561 -121.178867 230 1930ft 86kts
23-Apr-12 18:28 38.618435 -121.199901 230 1926ft 79kts
23-Apr-12 18:29 38.602803 -121.222266 220 1780ft 70kts
23-Apr-12 18:30 38.591679 -121.238281 230 1304ft 73kts
23-Apr-12 18:31 38.579946 -121.258936 225 835ft 71kts
23-Apr-12 18:32 38.568268 -121.278686 228 396ft 68kts
23-Apr-12 18:33 38.559219 -121.294208 234 100ft 30kts
23-Apr-12 18:34 38.557168 -121.297786 239 100ft 10kts
23-Apr-12 18:35 38.558740 -121.300503 329 99ft 0kts

Navigation Log

Ident Type
Flight plan parsing failed, navigation log unavailable